Wilmington, North Carolina
Current Conditions -  °F | °C
As of 5:53 PM on Tuesday 27 Jan 2015 (Local Time) from KILM Reporting Station
Clear Clear  
Wind Chill: 33°   Ceiling: Unl
Heat Index: 38°   Visibility: 10mi
Dew Point: 27°   Wind: 6mph
Humidity: 65%   Direction: 330°NNW
Pressure: 29.87"   Gusts: NA
Location:  34.24°N, 77.94°W
Report Text: KILM 272253Z 33005KT 10SM CLR 03/M03 A2987 RMK AO2 SLP113 T00331028
Loading
Personal Weather Stations






























Interactive Weather Map New forecast layout! Learn more

10-Day Weather Forecast

Advertisements
Track Severe Weather on mobile